Terminal Aerodrome Forecast
Issued by NWS Louisville, KY

Home | Current Version | Previous Version | Text Only | Print | Product List | Glossary On
Versions: 1 2 3 4 5 6 7 8 9 10 11 12 13 14 15 16 17 18 19 20
473
FTUS43 KLMK 022128 AAA
TAFLEX
TAF AMD
KLEX 022128Z 0221/0318 28006KT P6SM FEW030 BKN100
      TEMPO 0223/0302 BKN030
     FM030200 33004KT P6SM SCT025 BKN080
     FM030600 30003KT 4SM BR BKN015
     FM031400 31006KT P6SM BKN025=

USA.gov is the U.S. government's official web portal to all federal, state and local government web resources and services.